^^

..:: Storico WU ::..




Lo storico viene creato da WUnderground con i dati che la stazione Meteomincio invia al loro server. L' aggiornamento viene fatto ogni 5 minuti circa, tuttavia possono esserci intervalli pi¨ ampi a causa di errori, interruzioni di servizio o problemi nell' invio tramite FTP.


Storico stazione MeteoMincio
Giorno Sommario per Agosto 18, 2022 Unità:  Inglese    Metrico   Entrambi
Giorno Settimana Mese Anno
  Max: Min: Media:
Temperatura: 76.3 °F 67.8 °F 71.1 °F
Dew Point: 70.9 °F 65.5 °F 67.5 °F
Umidità: 93.8% 78.2% 89%
Velocità vento: 16.3mph 0mph 5mph
Raffica: 36mph - -
Direzione- - SE
Pressione: 29.9 in 29.7 in -
Precipitazioni: 1.08 in    
 
 
Tabulato Dati per Agosto 18, 2022
Ora Temperatura Dew Point Pressione Direzione Velocità vento Raffica Umidità Intensità pioggia (oraria) Info solare Situazione
00:04 70 °F 67.5 °F 29.9 in WNW 1.6 mph 2.3 mph 92% 0 in 0 W/m2
00:09 70 °F 67.6 °F 29.9 in NNW 1.3 mph 3.5 mph 92% 0 in 0 W/m2
00:14 70.2 °F 67.8 °F 29.9 in NNW 1.9 mph 3.5 mph 92% 0 in 0 W/m2
00:19 70.3 °F 67.8 °F 29.9 in NNW 2.3 mph 3.5 mph 92% 0 in 0 W/m2
00:24 70.3 °F 68 °F 29.9 in NNW 1.8 mph 4 mph 92% 0 in 0 W/m2
00:29 70.3 °F 67.8 °F 29.9 in NNW 1.7 mph 4 mph 91.7% 0 in 0 W/m2
00:34 70.3 °F 67.6 °F 29.9 in NW 2.2 mph 4 mph 91.2% 0 in 0 W/m2
00:39 70.3 °F 67.6 °F 29.9 in NNW 1.9 mph 4 mph 91.2% 0 in 0 W/m2
00:44 70.3 °F 67.5 °F 29.9 in NW 2.2 mph 4 mph 91% 0 in 0 W/m2
00:49 70.2 °F 67.3 °F 29.9 in West 2.4 mph 4 mph 91% 0 in 0 W/m2
00:54 69.8 °F 67.3 °F 29.9 in West 2.4 mph 4 mph 91.6% 0 in 0 W/m2
00:59 69.4 °F 67.1 °F 29.9 in West 1.3 mph 4 mph 92% 0 in 0 W/m2
01:04 69.3 °F 66.9 °F 29.9 in West 0.8 mph 2.3 mph 92% 0 in 0 W/m2
01:09 69.3 °F 66.9 °F 29.9 in West 0.1 mph 2 mph 92.2% 0 in 0 W/m2
01:14 69.4 °F 67.3 °F 29.9 in West 0.1 mph 1.2 mph 92.8% 0 in 0 W/m2
01:19 69.4 °F 67.3 °F 29.9 in West 0.1 mph 2 mph 92.6% 0 in 0 W/m2
01:24 69.4 °F 66.9 °F 29.9 in West 1.2 mph 3.5 mph 92% 0 in 0 W/m2
01:29 69.3 °F 67.1 °F 29.9 in West 0.4 mph 3 mph 93% 0 in 0 W/m2
01:34 69.3 °F 67.3 °F 29.9 in West 0.2 mph 1.2 mph 93% 0 in 0 W/m2
01:39 69.3 °F 67.3 °F 29.9 in Calm   1 mph 93% 0 in 0 W/m2
01:44 69.3 °F 67.3 °F 29.9 in Calm   1 mph 93% 0 in 0 W/m2
01:49 69.3 °F 67.1 °F 29.9 in West 0.3 mph 1.2 mph 93% 0 in 0 W/m2
01:54 69.1 °F 67.1 °F 29.9 in Calm   1.2 mph 93% 0 in 0 W/m2
01:59 69.3 °F 67.1 °F 29.9 in West 0.1 mph 1 mph 93% 0 in 0 W/m2
02:04 69.1 °F 67.1 °F 29.9 in West 1.1 mph 2.3 mph 93% 0 in 0 W/m2
02:09 69.3 °F 67.1 °F 29.9 in WNW 1 mph 3 mph 93% 0 in 0 W/m2
02:14 69.3 °F 67.3 °F 29.9 in WNW 1 mph 3.5 mph 93% 0 in 0 W/m2
02:19 69.3 °F 67.3 °F 29.9 in WNW 0.4 mph 2.3 mph 93% 0 in 0 W/m2
02:24 69.3 °F 67.3 °F 29.9 in Calm   1.2 mph 93% 0 in 0 W/m2
02:29 69.1 °F 66.9 °F 29.8 in WNW 0.3 mph 1.2 mph 92.6% 0 in 0 W/m2
02:34 68.9 °F 66.7 °F 29.8 in Calm   1 mph 92.7% 0 in 0 W/m2
02:39 68.7 °F 66.6 °F 29.8 in WNW 0.1 mph 1.2 mph 93% 0 in 0 W/m2
02:44 68.7 °F 66.6 °F 29.8 in Calm   1 mph 93% 0 in 0 W/m2
02:49 68.7 °F 66.6 °F 29.8 in Calm     93% 0 in 0 W/m2
02:54 68.7 °F 66.6 °F 29.8 in Calm     93% 0 in 0 W/m2
02:59 68.7 °F 66.6 °F 29.8 in WNW 0.4 mph 2 mph 93% 0 in 0 W/m2
03:04 68.4 °F 66.4 °F 29.9 in West 1.8 mph 3.5 mph 93% 0 in 0 W/m2
03:09 68.4 °F 66.2 °F 29.9 in West 1.6 mph 3.5 mph 93% 0 in 0 W/m2
03:14 68.2 °F 66.2 °F 29.9 in West 1.8 mph 3.5 mph 93% 0 in 0 W/m2
03:19 68.2 °F 66 °F 29.9 in West 1.1 mph 3 mph 93% 0 in 0 W/m2
03:24 68.2 °F 66.2 °F 29.9 in West 0.3 mph 2.3 mph 93% 0 in 0 W/m2
03:29 68.5 °F 66.4 °F 29.8 in NNW 0.7 mph 2.3 mph 93.3% 0 in 0 W/m2
03:34 68.7 °F 66.9 °F 29.8 in North 1.1 mph 2.3 mph 93.7% 0 in 0 W/m2
03:39 68.7 °F 66.7 °F 29.8 in NE 1.4 mph 2.3 mph 93% 0 in 0 W/m2
03:44 68.9 °F 66.7 °F 29.8 in NNE 0.2 mph 2.3 mph 93% 0 in 0 W/m2
03:49 68.9 °F 66.9 °F 29.9 in NW 0.9 mph 2.3 mph 93% 0 in 0 W/m2
03:54 69.1 °F 67.1 °F 29.9 in WNW 1.7 mph 3.5 mph 93% 0 in 0 W/m2
03:59 69.1 °F 66.9 °F 29.9 in West 1.7 mph 3.5 mph 93% 0 in 0 W/m2
04:04 68.9 °F 66.9 °F 29.9 in West 2.7 mph 4 mph 93% 0 in 0 W/m2
04:09 68.9 °F 66.7 °F 29.9 in West 3.9 mph 5 mph 93% 0 in 0 W/m2
04:14 68.9 °F 66.7 °F 29.9 in WSW 4.9 mph 9.2 mph 93% 0 in 0 W/m2
04:19 68.9 °F 66.9 °F 29.9 in WSW 7.5 mph 13 mph 93% 0 in 0 W/m2
04:24 69.3 °F 67.3 °F 29.9 in WSW 7.1 mph 13 mph 93% 0 in 0 W/m2
04:29 69.6 °F 67.5 °F 29.9 in West 7.9 mph 12 mph 93% 0.02 in 0 W/m2
04:34 69.8 °F 67.6 °F 29.9 in West 7.7 mph 13 mph 93% 0.03 in 0 W/m2
04:39 69.8 °F 67.6 °F 29.9 in WNW 11.1 mph 17.3 mph 92.8% 0.05 in 0 W/m2
04:44 69.8 °F 67.5 °F 29.9 in WNW 8 mph 17.3 mph 92.2% 0.05 in 0 W/m2
04:49 69.8 °F 67.6 °F 29.9 in NNW 4.7 mph 17 mph 92.7% 0.06 in 0 W/m2
04:54 70 °F 67.6 °F 29.9 in ENE 7.1 mph 12 mph 92.3% 0.06 in 0 W/m2
04:59 69.8 °F 67.5 °F 29.9 in ESE 6.8 mph 12 mph 92% 0.06 in 0 W/m2
05:04 69.6 °F 67.3 °F 29.9 in ESE 8.9 mph 15 mph 92% 0.06 in 0 W/m2
05:09 69.6 °F 67.1 °F 29.9 in ENE 11.7 mph 23 mph 92% 0.06 in 0 W/m2
05:14 69.4 °F 67.1 °F 29.8 in ENE 16.3 mph 23 mph 92% 0.07 in 0 W/m2
05:19 69.3 °F 66.9 °F 29.8 in ENE 14.9 mph 23 mph 92% 0.07 in 0 W/m2
05:24 69.3 °F 66.7 °F 29.8 in East 12.9 mph 23 mph 92% 0.07 in 0 W/m2
05:29 69.3 °F 66.9 °F 29.8 in East 13.9 mph 23 mph 92% 0.08 in 0 W/m2
05:34 69.3 °F 67.1 °F 29.8 in East 11.9 mph 19.6 mph 92.5% 0.08 in 0 W/m2
05:39 69.3 °F 66.9 °F 29.8 in East 8.8 mph 14 mph 92% 0.06 in 0 W/m2
05:44 69.4 °F 66.9 °F 29.8 in East 5.9 mph 14 mph 92% 0.04 in 0 W/m2
05:49 69.4 °F 67.1 °F 29.8 in NE 4.5 mph 13 mph 92% 0.03 in 0 W/m2
05:54 69.6 °F 67.1 °F 29.8 in WNW 6.1 mph 13 mph 92% 0.03 in 0 W/m2
05:59 69.6 °F 67.3 °F 29.8 in NW 5.4 mph 12 mph 92% 0.02 in 0 W/m2
06:04 69.6 °F 67.1 °F 29.8 in North 4 mph 10 mph 92% 0.02 in 0 W/m2
06:09 69.4 °F 67.1 °F 29.8 in NNE 4 mph 7 mph 92% 0.02 in 0 W/m2
06:14 69.3 °F 66.9 °F 29.8 in NNE 4.2 mph 7 mph 92% 0.02 in 0 W/m2
06:19 69.3 °F 66.9 °F 29.8 in NE 1.9 mph 7 mph 92% 0.01 in 0 W/m2
06:24 69.3 °F 66.9 °F 29.8 in NE 2.6 mph 6 mph 92% 0.01 in 0 W/m2
06:29 69.1 °F 66.7 °F 29.8 in NE 3.7 mph 6 mph 92% 0.01 in 0 W/m2
06:34 68.9 °F 66.6 °F 29.8 in NNE 3.2 mph 6 mph 92% 0 in 0 W/m2
06:39 68.9 °F 66.4 °F 29.8 in NE 2.1 mph 6 mph 92% 0 in 0 W/m2
06:44 68.9 °F 66.2 °F 29.8 in ESE 2.1 mph 5 mph 91.4% 0 in 0 W/m2
06:49 68.7 °F 66 °F 29.8 in SE 1.5 mph 4 mph 91.2% 0 in 5 W/m2
06:54 68.5 °F 66.2 °F 29.8 in East 2.6 mph 5 mph 92% 0 in 7 W/m2
06:59 68.4 °F 65.8 °F 29.8 in ESE 3.8 mph 7 mph 92% 0 in 11 W/m2
07:04 68.2 °F 65.8 °F 29.8 in ESE 2.9 mph 7 mph 92% 0 in 19 W/m2
07:09 68.2 °F 65.8 °F 29.8 in East 3 mph 7 mph 92% 0 in 32 W/m2
07:14 68.4 °F 65.8 °F 29.8 in ESE 3.1 mph 6 mph 92% 0 in 46 W/m2
07:19 68.5 °F 66 °F 29.8 in ESE 2.2 mph 3.5 mph 92% 0 in 69 W/m2
07:24 68.7 °F 66.4 °F 29.8 in ESE 2.4 mph 5 mph 92% 0 in 67 W/m2
07:29 68.7 °F 66.4 °F 29.8 in ESE 1.7 mph 5 mph 92% 0 in 62 W/m2
07:34 69.1 °F 66.7 °F 29.8 in SSW 0.6 mph 5 mph 92% 0 in 67 W/m2
07:39 69.3 °F 66.9 °F 29.8 in WSW 1.2 mph 2.3 mph 92% 0 in 70 W/m2
07:44 69.6 °F 67.1 °F 29.8 in West 2.1 mph 4 mph 92% 0 in 77 W/m2
07:49 69.8 °F 67.3 °F 29.8 in WSW 1.9 mph 4 mph 92% 0 in 88 W/m2
07:54 70 °F 67.5 °F 29.8 in West 2.4 mph 4 mph 92.1% 0 in 98 W/m2
07:59 70 °F 67.6 °F 29.8 in NW 1.6 mph 4 mph 92% 0 in 114 W/m2
08:04 70.2 °F 67.8 °F 29.8 in WNW 1 mph 3.5 mph 92% 0 in 118 W/m2
08:09 70.5 °F 68 °F 29.9 in WNW 1.2 mph 4 mph 91.8% 0 in 100 W/m2
08:14 70.5 °F 67.8 °F 29.9 in West 3.2 mph 5 mph 91% 0 in 86 W/m2
08:19 70.7 °F 67.5 °F 29.9 in WNW 5 mph 10.4 mph 90% 0 in 46 W/m2
08:24 70.5 °F 67.5 °F 29.9 in WNW 4.3 mph 10 mph 90% 0 in 49 W/m2
08:29 70.5 °F 67.3 °F 29.9 in West 4.5 mph 8 mph 90% 0 in 35 W/m2
08:34 70.3 °F 67.3 °F 29.9 in WSW 4.3 mph 7 mph 90.1% 0 in 5 W/m2
08:39 70.3 °F 67.3 °F 29.9 in West 3.5 mph 7 mph 90% 0 in 0 W/m2
08:44 70.2 °F 67.3 °F 29.9 in West 2.4 mph 7 mph 90.6% 0.03 in 0 W/m2
08:49 70 °F 67.3 °F 29.9 in SSW 1.7 mph 5 mph 91% 0.03 in 0 W/m2
08:54 70 °F 67.5 °F 29.9 in SW 7 mph 13 mph 92% 0.03 in 0 W/m2
08:59 69.8 °F 67.3 °F 29.9 in West 12.9 mph 22 mph 92% 0.05 in 0 W/m2
09:04 69.4 °F 67.1 °F 29.9 in NW 8.3 mph 22 mph 92% 0.07 in 12 W/m2
09:09 69.3 °F 66.9 °F 29.9 in NW 5.2 mph 20 mph 92% 0.08 in 11 W/m2
09:14 69.3 °F 66.9 °F 29.9 in NNE 3.5 mph 8 mph 92.4% 0.08 in 11 W/m2
09:19 69.1 °F 66.9 °F 29.9 in NNE 3.9 mph 9.2 mph 93% 0.08 in 11 W/m2
09:24 68.9 °F 66.7 °F 29.9 in NNW 3.9 mph 9 mph 93% 0.08 in 5 W/m2
09:29 68.5 °F 66.6 °F 29.9 in North 6.2 mph 11 mph 93% 0.08 in 14 W/m2
09:34 68.2 °F 66 °F 29.8 in NNE 8.6 mph 14 mph 93% 0.08 in 28 W/m2
09:39 68 °F 65.8 °F 29.8 in NNE 10.3 mph 16.1 mph 93% 0.08 in 56 W/m2
09:44 67.8 °F 65.8 °F 29.8 in NE 9.5 mph 18.4 mph 93% 0.06 in 63 W/m2
09:49 68 °F 66 °F 29.8 in NE 7.8 mph 18 mph 93% 0.05 in 54 W/m2
09:54 68.4 °F 66.2 °F 29.8 in NE 9.4 mph 16.1 mph 92.9% 0.05 in 72 W/m2
09:59 68.5 °F 66.4 °F 29.8 in NE 10.1 mph 17.3 mph 92.8% 0.05 in 116 W/m2
10:04 68.9 °F 66.4 °F 29.8 in NE 10.1 mph 17.3 mph 92.1% 0.03 in 109 W/m2
10:09 68.9 °F 66.4 °F 29.8 in ENE 9.6 mph 18 mph 91.3% 0.01 in 46 W/m2
10:14 69.1 °F 66.4 °F 29.8 in ENE 10.3 mph 18.4 mph 90.7% 0 in 54 W/m2
10:19 69.3 °F 66.2 °F 29.8 in NE 7.3 mph 18 mph 90% 0 in 53 W/m2
10:24 69.4 °F 66.2 °F 29.8 in East 8.2 mph 15 mph 89.3% 0 in 51 W/m2
10:29 69.4 °F 66.2 °F 29.8 in ENE 8.7 mph 15 mph 89.2% 0 in 49 W/m2
10:34 69.4 °F 66 °F 29.8 in ENE 8.5 mph 15 mph 89% 0 in 42 W/m2
10:39 69.6 °F 66.4 °F 29.8 in ENE 8.4 mph 15 mph 89.5% 0 in 70 W/m2
10:44 69.6 °F 66.4 °F 29.8 in ENE 8.3 mph 15 mph 89.3% 0 in 111 W/m2
10:49 70 °F 66.6 °F 29.8 in ENE 10 mph 18.4 mph 88.9% 0 in 149 W/m2
10:54 70.3 °F 66.7 °F 29.8 in ENE 10.6 mph 18 mph 88.2% 0 in 149 W/m2
10:59 70.7 °F 67.1 °F 29.8 in ENE 10 mph 18.4 mph 88% 0 in 130 W/m2
11:04 70.9 °F 67.1 °F 29.8 in East 7.8 mph 18 mph 87.8% 0 in 77 W/m2
11:09 70.7 °F 66.9 °F 29.8 in ESE 8.4 mph 13 mph 88% 0 in 30 W/m2
11:14 70.7 °F 66.9 °F 29.8 in East 9.3 mph 15 mph 88% 0 in 19 W/m2
11:18 70.7 °F 66.7 °F 29.8 in East 11.9 mph 20 mph 87.6% 0 in 12 W/m2
11:24 70.7 °F 66.6 °F 29.8 in East 11 mph 20 mph 87% 0 in 9 W/m2
11:29 70.9 °F 66.6 °F 29.8 in East 13.1 mph 21 mph 86.2% 0 in 9 W/m2
11:34 70.9 °F 66.6 °F 29.8 in East 12.5 mph 21 mph 86% 0.01 in 7 W/m2
11:39 70.7 °F 66.4 °F 29.8 in ESE 14.8 mph 25.3 mph 86.2% 0.02 in 5 W/m2
11:44 70.2 °F 66.4 °F 29.8 in South 11.2 mph 25 mph 87.6% 0.09 in 0 W/m2
11:49 69.6 °F 66.4 °F 29.9 in South 14 mph 36 mph 89.5% 0.21 in 0 W/m2
11:54 68.7 °F 65.8 °F 29.9 in ESE 9.3 mph 22 mph 90.4% 0.46 in 0 W/m2
11:59 68.2 °F 65.5 °F 29.9 in ENE 14.1 mph 25.3 mph 91% 0.66 in 12 W/m2
12:04 68.2 °F 65.7 °F 29.9 in SSE 8.8 mph 25.3 mph 91.7% 0.67 in 7 W/m2
12:09 68.2 °F 65.8 °F 29.9 in East 7.2 mph 25 mph 92% 0.78 in 9 W/m2
12:14 68.2 °F 65.7 °F 29.8 in NE 6 mph 15 mph 92% 0.83 in 7 W/m2
12:19 68 °F 65.7 °F 29.8 in NE 9 mph 14 mph 92% 0.86 in 7 W/m2
12:24 68 °F 65.5 °F 29.8 in NNE 7.3 mph 18.4 mph 92% 0.86 in 9 W/m2
12:29 68 °F 65.7 °F 29.8 in NE 11.3 mph 18 mph 92% 0.87 in 14 W/m2
12:34 68 °F 65.8 °F 29.8 in NE 6.5 mph 17 mph 92.3% 0.87 in 25 W/m2
12:39 68 °F 66 °F 29.8 in NE 6 mph 14 mph 93% 0.88 in 44 W/m2
12:44 68 °F 66 °F 29.8 in NE 4.4 mph 9 mph 93% 0.88 in 79 W/m2
12:49 68.4 °F 66.2 °F 29.8 in NE 2.7 mph 8 mph 93% 0.81 in 105 W/m2
12:54 68.7 °F 66.7 °F 29.8 in NNE 1.5 mph 5 mph 93.1% 0.64 in 130 W/m2
12:59 69.3 °F 67.3 °F 29.8 in NNE 2.5 mph 6 mph 93.8% 0.39 in 160 W/m2
13:04 69.3 °F 67.1 °F 29.8 in ENE 4.7 mph 7 mph 93% 0.26 in 299 W/m2
13:09 69.6 °F 67.6 °F 29.8 in NE 4.8 mph 10.4 mph 93.7% 0.2 in 522 W/m2
13:14 70.3 °F 68.5 °F 29.8 in NE 7.7 mph 12 mph 93.8% 0.14 in 624 W/m2
13:19 70.9 °F 68.9 °F 29.8 in NNE 9.9 mph 18.4 mph 93.8% 0.09 in 610 W/m2
13:24 71.1 °F 69.1 °F 29.7 in NNE 13 mph 24.2 mph 93% 0.06 in 610 W/m2
13:29 71.2 °F 68.9 °F 29.7 in NE 11.4 mph 24 mph 92.3% 0.06 in 707 W/m2
13:34 71.6 °F 68.9 °F 29.7 in ENE 11.2 mph 21 mph 91.4% 0.06 in 707 W/m2
13:39 72 °F 68.9 °F 29.7 in ENE 9.9 mph 21 mph 90.5% 0.05 in 742 W/m2
13:44 72.3 °F 69.1 °F 29.7 in ENE 11.5 mph 17.3 mph 89.7% 0.03 in 758 W/m2
13:49 72.9 °F 69.4 °F 29.8 in ENE 7.1 mph 17 mph 89.2% 0.02 in 633 W/m2
13:54 73.2 °F 69.4 °F 29.8 in East 6.5 mph 16 mph 88% 0.02 in 592 W/m2
13:59 74.3 °F 70.3 °F 29.8 in East 5 mph 11.5 mph 87.4% 0.01 in 770 W/m2
14:04 75 °F 70.5 °F 29.8 in East 6.3 mph 12 mph 85.9% 0 in 874 W/m2
14:09 75.7 °F 70.7 °F 29.8 in East 7.6 mph 13 mph 84.6% 0 in 928 W/m2
14:14 76.3 °F 70.9 °F 29.8 in ENE 8.1 mph 13 mph 83.8% 0 in 932 W/m2
14:19 76.1 °F 70.9 °F 29.8 in NE 6.7 mph 13 mph 83.5% 0 in 888 W/m2
14:24 75.4 °F 70 °F 29.8 in ENE 7.5 mph 14 mph 83% 0 in 464 W/m2
14:29 75 °F 69.6 °F 29.8 in ENE 7 mph 14 mph 83.6% 0 in 285 W/m2
14:34 74.5 °F 69.3 °F 29.8 in ENE 6.9 mph 10.4 mph 83.8% 0 in 204 W/m2
14:39 74.1 °F 69.1 °F 29.8 in ENE 6.5 mph 10.4 mph 84.1% 0 in 69 W/m2
14:44 73.9 °F 69.3 °F 29.8 in East 3.3 mph 10 mph 85.4% 0 in 90 W/m2
14:49 73.8 °F 68.9 °F 29.8 in East 8.1 mph 13 mph 85.2% 0 in 90 W/m2
14:54 73.6 °F 68.7 °F 29.8 in East 8.1 mph 15 mph 85% 0 in 120 W/m2
14:59 73.4 °F 68.9 °F 29.8 in East 8.4 mph 14 mph 85.7% 0 in 151 W/m2
15:04 73.4 °F 69.1 °F 29.8 in East 8.9 mph 14 mph 86.2% 0 in 257 W/m2
15:09 73.6 °F 69.3 °F 29.8 in East 7.6 mph 15 mph 86% 0 in 454 W/m2
15:14 74.7 °F 70.2 °F 29.8 in East 7.3 mph 15 mph 85.8% 0 in 851 W/m2
15:19 75.6 °F 70.5 °F 29.8 in East 7.5 mph 16.1 mph 84.5% 0 in 831 W/m2
15:24 75.9 °F 70.9 °F 29.8 in East 8.9 mph 16 mph 84.4% 0 in 831 W/m2
15:29 75.7 °F 70.5 °F 29.8 in East 9.4 mph 14 mph 83.4% 0 in 315 W/m2
15:34 75.7 °F 70.5 °F 29.8 in East 7.4 mph 14 mph 84% 0 in 315 W/m2
15:39 75.6 °F 70.5 °F 29.8 in East 8.8 mph 14 mph 84.1% 0 in 309 W/m2
15:44 75.9 °F 70.9 °F 29.8 in East 5.8 mph 14 mph 84.3% 0 in 343 W/m2
15:49 75.7 °F 70.5 °F 29.8 in East 6.8 mph 13 mph 84% 0 in 183 W/m2
15:54 75.2 °F 70.2 °F 29.8 in ENE 6.3 mph 13 mph 84.4% 0 in 244 W/m2
15:59 75.6 °F 70.7 °F 29.8 in East 7.5 mph 13 mph 85% 0 in 392 W/m2
16:04 76.1 °F 70.9 °F 29.8 in East 7.5 mph 13 mph 84% 0 in 392 W/m2
16:09 75.4 °F 70.2 °F 29.8 in ENE 8.7 mph 14 mph 84% 0 in 132 W/m2
16:14 74.7 °F 70 °F 29.8 in ENE 7.3 mph 14 mph 85.1% 0 in 104 W/m2
16:19 74.3 °F 69.4 °F 29.8 in ENE 9.1 mph 15 mph 84.8% 0 in 186 W/m2
16:24 74.3 °F 69.3 °F 29.8 in ENE 9.9 mph 16.1 mph 84.5% 0 in 186 W/m2
16:29 74.5 °F 69.3 °F 29.8 in ENE 8.7 mph 16 mph 84% 0 in 155 W/m2
16:34 74.5 °F 69.3 °F 29.8 in East 9.6 mph 15 mph 83.8% 0 in 153 W/m2
16:39 74.3 °F 69.1 °F 29.8 in ENE 9.6 mph 18.4 mph 83.6% 0 in 72 W/m2
16:44 73.8 °F 68.5 °F 29.8 in ENE 10.8 mph 18 mph 83.7% 0 in 93 W/m2
16:49 73.6 °F 68.4 °F 29.8 in ENE 9 mph 17 mph 84% 0 in 93 W/m2
16:54 73.6 °F 68.4 °F 29.8 in East 9 mph 16.1 mph 83.8% 0 in 93 W/m2
16:59 73.6 °F 68.2 °F 29.8 in ENE 8.8 mph 16.1 mph 83.2% 0 in 107 W/m2
17:04 73.8 °F 68.4 °F 29.8 in East 8 mph 16.1 mph 83.2% 0 in 116 W/m2
17:09 73.9 °F 68.4 °F 29.8 in East 8.4 mph 16 mph 82.8% 0 in 213 W/m2
17:14 74.3 °F 68.2 °F 29.8 in East 8.6 mph 15 mph 81.3% 0 in 213 W/m2
17:19 74.3 °F 68 °F 29.8 in East 7.3 mph 15 mph 81% 0 in 200 W/m2
17:24 74.3 °F 68.2 °F 29.8 in East 5.7 mph 12 mph 81% 0 in 141 W/m2
17:29 74.3 °F 68.2 °F 29.8 in ESE 5.8 mph 10.4 mph 81.3% 0 in 141 W/m2
17:34 74.1 °F 68.2 °F 29.8 in East 5.5 mph 10 mph 81.6% 0 in 220 W/m2
17:39 74.5 °F 68.5 °F 29.8 in East 4.2 mph 9.2 mph 81.8% 0 in 383 W/m2
17:44 74.8 °F 68.5 °F 29.8 in ESE 6.3 mph 9.2 mph 80.9% 0 in 383 W/m2
17:49 75.2 °F 68.5 °F 29.8 in East 5.9 mph 9 mph 79.6% 0 in 255 W/m2
17:54 75.7 °F 68.7 °F 29.8 in ENE 6.4 mph 11.5 mph 79.4% 0 in 294 W/m2
17:59 75.7 °F 68.7 °F 29.8 in ENE 7.1 mph 12 mph 78.8% 0 in 294 W/m2
18:04 75.7 °F 68.7 °F 29.8 in East 5.2 mph 12 mph 79% 0 in 352 W/m2
18:09 75.9 °F 68.7 °F 29.8 in East 4.3 mph 12 mph 78.8% 0 in 403 W/m2
18:14 76.3 °F 69.1 °F 29.8 in ENE 5.3 mph 9.2 mph 78.5% 0 in 408 W/m2
18:19 76.1 °F 68.9 °F 29.8 in East 5.7 mph 9.2 mph 78.4% 0 in 371 W/m2
18:24 76.1 °F 68.7 °F 29.8 in ENE 6.6 mph 13 mph 78.2% 0 in 371 W/m2
18:29 75.7 °F 68.5 °F 29.8 in ENE 6.6 mph 13 mph 78.5% 0 in 104 W/m2
18:34 75.4 °F 68.7 °F 29.8 in ENE 3.3 mph 13 mph 79.8% 0 in 202 W/m2
18:39 75.4 °F 68.9 °F 29.8 in ENE 3 mph 8 mph 80.6% 0 in 202 W/m2
18:44 75.4 °F 69.1 °F 29.8 in ENE 5.1 mph 8.1 mph 80.6% 0 in 160 W/m2
18:49 75.4 °F 68.7 °F 29.8 in ENE 4.7 mph 8.1 mph 80% 0 in 105 W/m2
18:54 75 °F 68.5 °F 29.8 in NE 4 mph 8 mph 80% 0 in 72 W/m2
18:59 74.8 °F 68.4 °F 29.8 in NE 4.5 mph 7 mph 80% 0 in 77 W/m2
19:04 74.8 °F 68.5 °F 29.8 in NE 6.3 mph 10.4 mph 81% 0 in 83 W/m2
19:09 74.5 °F 68.4 °F 29.8 in NE 6.7 mph 13 mph 81.1% 0 in 105 W/m2
19:14 74.3 °F 68.2 °F 29.8 in ENE 7.8 mph 13 mph 81% 0 in 104 W/m2
19:19 74.1 °F 68 °F 29.8 in ENE 7.1 mph 13 mph 81% 0 in 90 W/m2
19:24 74.1 °F 68.2 °F 29.8 in NE 4.2 mph 13 mph 81.8% 0 in 95 W/m2
19:29 74.1 °F 68.4 °F 29.8 in NE 6 mph 9.2 mph 82% 0 in 91 W/m2
19:34 73.9 °F 68.2 °F 29.8 in NE 4.8 mph 9.2 mph 82% 0 in 72 W/m2
19:39 73.9 °F 68.2 °F 29.8 in ENE 5 mph 9 mph 82% 0 in 72 W/m2
19:44 73.9 °F 68 °F 29.8 in ENE 3.5 mph 8 mph 82% 0 in 65 W/m2
19:49 73.8 °F 68 °F 29.8 in East 3.2 mph 7 mph 82% 0 in 70 W/m2
19:54 73.6 °F 67.8 °F 29.8 in East 4.7 mph 8.1 mph 82% 0 in 70 W/m2
19:59 73.6 °F 68 °F 29.8 in East 3.4 mph 8 mph 82.7% 0 in 62 W/m2
20:04 73.6 °F 68 °F 29.8 in East 3.2 mph 7 mph 83% 0 in 56 W/m2
20:09 73.4 °F 67.8 °F 29.8 in East 3.2 mph 7 mph 83% 0 in 42 W/m2
20:14 73.2 °F 67.8 °F 29.8 in ENE 3.2 mph 7 mph 83% 0 in 26 W/m2
20:19 73.2 °F 67.8 °F 29.8 in ENE 3.2 mph 7 mph 83% 0 in 19 W/m2
20:24 73 °F 67.6 °F 29.8 in ENE 3.3 mph 6 mph 83.1% 0 in 7 W/m2
20:29 72.9 °F 67.5 °F 29.8 in East 1.7 mph 6 mph 83.2% 0 in 0 W/m2
20:34 72.7 °F 67.3 °F 29.8 in ENE 1.6 mph 3.5 mph 83.3% 0 in 0 W/m2
20:39 72.3 °F 67.5 °F 29.8 in NE 1.8 mph 3.5 mph 84.5% 0 in 0 W/m2
20:44 72.3 °F 67.3 °F 29.8 in NE 0.7 mph 3 mph 84.4% 0 in 0 W/m2
20:49 72.3 °F 67.3 °F 29.8 in NE 0.2 mph 2 mph 84.3% 0 in 0 W/m2
20:54 72.3 °F 67.3 °F 29.8 in NE 0.5 mph 2.3 mph 84.3% 0 in 0 W/m2
20:59 72.1 °F 67.3 °F 29.8 in Calm   2 mph 84.8% 0 in 0 W/m2
21:04 72 °F 67.3 °F 29.8 in Calm     85.6% 0 in 0 W/m2
21:09 71.6 °F 67.5 °F 29.8 in Calm   1 mph 86.8% 0 in 0 W/m2
21:14 71.2 °F 67.1 °F 29.8 in NE 1 mph 2.3 mph 87% 0 in 0 W/m2
21:19 70.9 °F 67.1 °F 29.8 in NE 1.4 mph 3.5 mph 87.6% 0 in 0 W/m2
21:24 70.9 °F 67.1 °F 29.8 in NE 2.4 mph 3.5 mph 88% 0 in 0 W/m2
21:29 71.1 °F 67.3 °F 29.8 in NE 1.6 mph 3.5 mph 88% 0 in 0 W/m2
21:34 71.1 °F 67.1 °F 29.8 in NE 1.3 mph 3 mph 87.3% 0 in 0 W/m2
21:39 71.1 °F 66.9 °F 29.8 in East 1.5 mph 3 mph 87% 0 in 0 W/m2
21:44 71.1 °F 66.9 °F 29.8 in ENE 2.9 mph 6 mph 86.7% 0 in 0 W/m2
21:49 71.2 °F 66.9 °F 29.8 in NE 2.5 mph 6 mph 86% 0 in 0 W/m2
21:54 71.4 °F 66.9 °F 29.8 in NE 0.8 mph 4 mph 86% 0 in 0 W/m2
21:59 71.4 °F 67.1 °F 29.8 in NE 0.2 mph 3 mph 85.8% 0 in 0 W/m2
22:04 71.6 °F 67.3 °F 29.8 in NW 0.6 mph 3 mph 85.9% 0 in 0 W/m2
22:09 71.6 °F 67.3 °F 29.8 in West 1.4 mph 3.5 mph 86% 0 in 0 W/m2
22:14 71.6 °F 67.3 °F 29.8 in West 0.2 mph 3 mph 86% 0 in 0 W/m2
22:19 71.8 °F 67.5 °F 29.8 in West 0.5 mph 2.3 mph 86% 0 in 0 W/m2
22:24 71.6 °F 67.3 °F 29.8 in West 0.3 mph 2.3 mph 86% 0 in 0 W/m2
22:29 71.6 °F 67.3 °F 29.8 in West 0.1 mph 2 mph 86.6% 0 in 0 W/m2
22:34 71.4 °F 67.3 °F 29.8 in WNW 0.7 mph 2.3 mph 86.8% 0 in 0 W/m2
22:39 71.4 °F 67.3 °F 29.8 in WNW 0.5 mph 2.3 mph 87% 0 in 0 W/m2
22:44 71.4 °F 67.5 °F 29.8 in Calm   2 mph 87% 0 in 0 W/m2
22:49 71.4 °F 67.3 °F 29.8 in Calm   1 mph 87% 0 in 0 W/m2
22:54 71.2 °F 67.3 °F 29.8 in Calm     87% 0 in 0 W/m2
22:59 71.4 °F 67.3 °F 29.8 in Calm     87% 0 in 0 W/m2
23:04 71.4 °F 67.3 °F 29.8 in WNW 0.6 mph 3 mph 87% 0 in 0 W/m2
23:09 71.2 °F 67.5 °F 29.8 in West 1.9 mph 4 mph 87.7% 0 in 0 W/m2
23:14 70.9 °F 67.3 °F 29.8 in WNW 1.5 mph 4 mph 88.1% 0 in 0 W/m2
23:19 70.9 °F 67.3 °F 29.8 in WNW 0.9 mph 3 mph 88% 0 in 0 W/m2
23:24 70.9 °F 67.3 °F 29.8 in West 2 mph 3.5 mph 88.4% 0 in 0 W/m2
23:29 70.7 °F 67.3 °F 29.8 in NW 2.4 mph 5 mph 89% 0 in 0 W/m2
23:34 70.7 °F 67.3 °F 29.8 in WNW 4.2 mph 8.1 mph 89% 0 in 0 W/m2
23:39 70.7 °F 67.3 °F 29.8 in NW 4.1 mph 8.1 mph 89% 0 in 0 W/m2
23:44 70.5 °F 67.1 °F 29.8 in NE 2.5 mph 5 mph 89% 0 in 0 W/m2
23:49 70.7 °F 67.3 °F 29.8 in WNW 2.7 mph 7 mph 88.8% 0 in 0 W/m2
23:54 70.7 °F 66.9 °F 29.8 in WNW 4.3 mph 7 mph 88% 0 in 0 W/m2
23:59 70.5 °F 66.9 °F 29.8 in WNW 4 mph 7 mph 88% 0 in 0 W/m2
Stazione Meteorologica MeteoMincio Rivalta s/M (MN)
Con i complimenti di Weather Underground - 4 mb


GLOSSARIO METEOROLOGICO
Vento
Il vento è prodotto dalla differenza di pressione tra due zone e serve per ristabilirne l'equilibrio. Dalla zona con pressione più alta l'aria affluisce a quella con pressione inferiore. Più le isobare (linee di ugual pressione) sono ravvicinate e più la forza del vento sarà intensa. Il vento è classificato dalla scala Beaufort. E' definito dalla sua direzione e dalla sua forza o, più esattamente, dalla sua velocità. Vento, pressione atmosferica e temperatura stanno in rapporto funzionale con l'andamento del tempo.

Do NOT follow this link or you will be banned from the site!